Time;durP1;ratioP1;P1;durP2;ratioP2;P2;SDS_P1;SDS_P2;PMS_P1;PMS_P2;Temp;Humidity;BMP_temperature;BMP_pressure;BME280_temperature;BME280_humidity;BME280_pressure;Samples;Min_cycle;Max_cycle;Signal;HPM_P1;HPM_P2
2022/01/19 00:02:31;;;;;;;;;;;;;;;1.53;100.00;103148.28;5076352;28;20356;-78
2022/01/19 00:04:57;;;;;;;;;;;;;;;1.57;100.00;103145.25;5062354;28;19920;-80
2022/01/19 00:07:24;;;;;;;;;;;;;;;1.50;100.00;103135.88;5095617;28;19927;-81
2022/01/19 00:10:03;;;;;;;;;;;;;;;1.51;100.00;103131.59;5076838;28;19928;-80
2022/01/19 00:12:30;;;;;;;;;;;;;;;1.41;100.00;103146.22;5066830;28;19920;-77
2022/01/19 00:14:55;;;;;;;;;;;;;;;1.36;100.00;103144.75;5105078;28;19920;-78
2022/01/19 00:17:21;;;;;;;;;;;;;;;1.13;100.00;103146.50;5094327;28;19931;-80
2022/01/19 00:19:48;;;;;;;;;;;;;;;1.15;100.00;103142.41;5110946;28;19920;-77
2022/01/19 00:22:17;;;;;;;;;;;;;;;1.08;100.00;103135.63;5076453;28;19952;-78
2022/01/19 00:24:43;;;;;;;;;;;;;;;1.16;100.00;103133.88;5068506;28;20294;-76
2022/01/19 00:27:11;;;;;;;;;;;;;;;1.14;100.00;103131.09;5104742;28;19920;-78
2022/01/19 00:29:37;;;;;;;;;;;;;;;1.14;100.00;103123.31;5057179;28;20377;-79
2022/01/19 00:32:07;;;;;;;;;;;;;;;0.96;100.00;103108.31;5054031;28;19931;-78
2022/01/19 00:34:34;;;;;;;;;;;;;;;0.89;100.00;103098.94;5075568;28;20014;-78
2022/01/19 00:36:59;;;;;;;;;;;;;;;0.75;100.00;103088.69;5078951;28;19970;-77
2022/01/19 00:39:31;;;;;;;;;;;;;;;0.67;100.00;103065.41;5061198;28;19924;-77
2022/01/19 00:41:57;;;;;;;;;;;;;;;0.61;100.00;103064.75;5114924;28;19927;-79
2022/01/19 00:44:22;;;;;;;;;;;;;;;0.60;100.00;103046.41;5073910;28;20352;-77
2022/01/19 00:46:49;;;;;;;;;;;;;;;0.57;100.00;103044.38;5092372;28;19927;-79
2022/01/19 00:49:15;;;;;;;;;;;;;;;0.58;100.00;103042.75;5077107;28;19932;-77
2022/01/19 00:51:40;;;;;;;;;;;;;;;0.61;100.00;103044.00;5077331;28;19927;-76
2022/01/19 00:54:05;;;;;;;;;;;;;;;0.62;100.00;103048.44;5078431;28;20011;-79
2022/01/19 00:56:33;;;;;;;;;;;;;;;0.62;100.00;103057.88;5076848;28;20360;-78
2022/01/19 00:58:59;;;;;;;;;;;;;;;0.57;100.00;103051.25;5096277;28;19977;-77
2022/01/19 01:01:26;;;;;;;;;;;;;;;0.57;100.00;103054.75;5088734;28;19974;-80
2022/01/19 01:03:52;;;;;;;;;;;;;;;0.31;100.00;103059.63;5077453;28;19955;-79
2022/01/19 01:06:18;;;;;;;;;;;;;;;0.20;100.00;103062.66;5071680;28;19924;-79
2022/01/19 01:08:44;;;;;;;;;;;;;;;0.24;100.00;103049.31;5097222;28;19923;-79
2022/01/19 01:11:09;;;;;;;;;;;;;;;0.14;100.00;103035.34;5093295;28;19920;-79
2022/01/19 01:16:32;;;;;;;;;;;;;;;0.05;100.00;103015.22;5099750;28;20390;-79
2022/01/19 01:19:04;;;;;;;;;;;;;;;0.02;100.00;103009.69;5089577;28;20386;-79
2022/01/19 01:21:30;;;;;;;;;;;;;;;0.02;100.00;103000.28;5115491;28;20375;-80
2022/01/19 01:24:05;;;;;;;;;;;;;;;-0.10;100.00;102981.66;5114562;28;19926;-80
2022/01/19 01:26:32;;;;;;;;;;;;;;;-0.15;100.00;102980.22;5078298;28;19963;-79
2022/01/19 01:28:57;;;;;;;;;;;;;;;-0.23;100.00;102987.13;5094659;28;19920;-79
2022/01/19 01:31:23;;;;;;;;;;;;;;;-0.15;100.00;102979.31;5088676;28;19955;-80
2022/01/19 01:33:54;;;;;;;;;;;;;;;-0.16;100.00;102983.56;5073103;28;20368;-79
2022/01/19 01:36:19;;;;;;;;;;;;;;;-0.19;100.00;102978.03;5076483;28;19916;-77
2022/01/19 01:38:46;;;;;;;;;;;;;;;-0.25;100.00;102979.91;5078154;28;19924;-81
2022/01/19 01:41:13;;;;;;;;;;;;;;;-0.16;100.00;102969.69;5056523;28;20348;-80
2022/01/19 01:43:41;;;;;;;;;;;;;;;-0.13;100.00;102950.22;5073078;28;19920;-79
2022/01/19 01:46:15;;;;;;;;;;;;;;;-0.07;100.00;102953.50;5082755;28;20038;-80
2022/01/19 01:48:45;;;;;;;;;;;;;;;-0.12;100.00;102946.00;5069890;28;19917;-78
2022/01/19 01:53:55;;;;;;;;;;;;;;;-0.03;100.00;102952.22;5064794;28;20025;-78
2022/01/19 01:56:20;;;;;;;;;;;;;;;0.00;100.00;102944.78;5076252;28;19924;-78
2022/01/19 01:58:47;;;;;;;;;;;;;;;0.03;100.00;102942.50;5074124;28;19923;-80
2022/01/19 02:01:14;;;;;;;;;;;;;;;0.05;100.00;102947.84;5089070;28;20425;-80
2022/01/19 02:03:44;;;;;;;;;;;;;;;0.08;100.00;102933.59;5072692;28;20368;-77
2022/01/19 02:06:31;;;;;;;;;;;;;;;0.17;100.00;102921.66;5075649;28;19986;-78
2022/01/19 02:09:12;;;;;;;;;;;;;;;0.21;100.00;102915.16;5077925;28;20359;-79
2022/01/19 02:22:40;;;;;;;;;;;;;;;0.86;100.00;102865.13;5063011;28;19931;-81
2022/01/19 02:25:10;;;;;;;;;;;;;;;1.00;100.00;102874.41;5086227;28;19962;-78
2022/01/19 02:41:00;;;;;;;;;;;;;;;1.38;100.00;102852.50;5077700;28;19927;-78
2022/01/19 02:43:28;;;;;;;;;;;;;;;1.46;100.00;102849.78;5060799;28;19933;-81
2022/01/19 02:51:22;;;;;;;;;;;;;;;1.42;100.00;102841.66;5097645;28;19927;-78
2022/01/19 02:53:52;;;;;;;;;;;;;;;1.46;100.00;102823.81;5095481;28;19916;-81
2022/01/19 02:56:24;;;;;;;;;;;;;;;1.54;100.00;102815.13;5090057;28;19927;-78
2022/01/19 02:58:54;;;;;;;;;;;;;;;1.58;100.00;102806.91;5081740;28;20272;-78
2022/01/19 03:09:23;;;;;;;;;;;;;;;1.40;100.00;102779.97;5096636;28;19955;-80
2022/01/19 03:11:51;;;;;;;;;;;;;;;1.24;100.00;102772.25;5096962;28;19916;-79
2022/01/19 03:14:18;;;;;;;;;;;;;;;1.29;100.00;102762.34;5060958;28;19928;-81
2022/01/19 03:16:48;;;;;;;;;;;;;;;1.25;100.00;102766.31;5077294;28;19924;-81
2022/01/19 03:19:13;;;;;;;;;;;;;;;1.15;100.00;102760.91;5070775;28;20594;-79
2022/01/19 03:21:40;;;;;;;;;;;;;;;1.10;100.00;102751.75;5077806;28;19980;-79
2022/01/19 03:24:17;;;;;;;;;;;;;;;1.08;100.00;102744.69;5073714;28;19925;-81
2022/01/19 03:26:44;;;;;;;;;;;;;;;1.06;100.00;102746.22;5064749;28;20004;-80
2022/01/19 03:29:09;;;;;;;;;;;;;;;1.03;100.00;102745.00;5051235;28;19925;-79
2022/01/19 03:31:37;;;;;;;;;;;;;;;1.05;100.00;102734.00;5083367;28;19924;-78
2022/01/19 03:34:05;;;;;;;;;;;;;;;1.03;100.00;102735.53;5063468;28;19952;-79
2022/01/19 03:36:31;;;;;;;;;;;;;;;1.05;100.00;102733.09;5079706;28;19964;-79
2022/01/19 03:38:57;;;;;;;;;;;;;;;1.00;100.00;102731.72;5075605;28;19921;-78
2022/01/19 03:41:22;;;;;;;;;;;;;;;0.99;100.00;102735.03;5070465;28;19936;-80
2022/01/19 03:43:49;;;;;;;;;;;;;;;0.87;100.00;102745.03;5095811;28;19920;-79
2022/01/19 03:46:15;;;;;;;;;;;;;;;0.88;100.00;102749.47;5073591;28;20360;-78
2022/01/19 03:48:57;;;;;;;;;;;;;;;0.96;100.00;102748.59;5085307;28;19927;-79
2022/01/19 03:51:23;;;;;;;;;;;;;;;1.02;100.00;102740.56;5077932;28;20344;-79
2022/01/19 03:53:55;;;;;;;;;;;;;;;1.01;100.00;102736.13;5083088;28;20010;-79
2022/01/19 03:56:21;;;;;;;;;;;;;;;1.02;100.00;102735.38;5085117;28;19931;-80
2022/01/19 03:58:47;;;;;;;;;;;;;;;1.05;100.00;102736.59;5080758;28;19921;-80
2022/01/19 04:01:13;;;;;;;;;;;;;;;1.10;100.00;102728.38;5066079;28;19924;-79
2022/01/19 04:04:14;;;;;;;;;;;;;;;1.18;100.00;102724.91;5078364;28;19924;-78
2022/01/19 04:06:56;;;;;;;;;;;;;;;1.22;100.00;102727.06;5084747;28;20021;-78
2022/01/19 04:09:17;;;;;;;;;;;;;;;1.28;100.00;102730.31;5087603;28;19920;-81
2022/01/19 04:11:44;;;;;;;;;;;;;;;1.34;100.00;102725.75;5058474;28;19943;-78
2022/01/19 04:16:37;;;;;;;;;;;;;;;1.42;100.00;102727.44;5095546;28;19924;-80
2022/01/19 04:19:22;;;;;;;;;;;;;;;1.55;100.00;102723.50;5078085;28;20374;-80
2022/01/19 04:21:50;;;;;;;;;;;;;;;1.60;100.00;102727.47;5095649;28;19978;-78
2022/01/19 04:24:15;;;;;;;;;;;;;;;1.63;100.00;102721.69;5077901;28;19958;-78
2022/01/19 04:26:40;;;;;;;;;;;;;;;1.69;100.00;102720.63;5077572;28;19928;-78
2022/01/19 04:29:06;;;;;;;;;;;;;;;1.67;100.00;102718.66;5094167;28;19920;-80
2022/01/19 04:31:33;;;;;;;;;;;;;;;1.79;100.00;102723.41;5095268;28;19927;-79
2022/01/19 04:34:04;;;;;;;;;;;;;;;1.80;100.00;102724.31;5044342;28;19924;-80
2022/01/19 04:45:01;;;;;;;;;;;;;;;1.90;100.00;102695.00;4993310;28;19994;-80
2022/01/19 05:06:20;;;;;;;;;;;;;;;2.07;100.00;102662.91;5057361;28;19966;-80
2022/01/19 05:14:22;;;;;;;;;;;;;;;2.21;100.00;102647.00;5043074;28;19928;-80
2022/01/19 05:16:47;;;;;;;;;;;;;;;2.28;100.00;102645.91;5060312;28;19920;-80
2022/01/19 05:19:12;;;;;;;;;;;;;;;2.24;100.00;102649.00;5075998;28;19977;-81
2022/01/19 05:21:39;;;;;;;;;;;;;;;2.17;100.00;102644.84;5074859;28;20062;-80
2022/01/19 05:24:07;;;;;;;;;;;;;;;2.13;100.00;102650.53;5059979;28;19958;-79
2022/01/19 05:26:34;;;;;;;;;;;;;;;2.20;100.00;102652.03;5063614;28;19921;-78
2022/01/19 05:29:00;;;;;;;;;;;;;;;2.27;100.00;102641.47;5072881;28;19916;-78
2022/01/19 05:31:26;;;;;;;;;;;;;;;2.33;100.00;102636.84;5059492;28;20256;-78
2022/01/19 05:33:51;;;;;;;;;;;;;;;2.33;100.00;102632.59;5042654;28;19925;-82
2022/01/19 05:36:17;;;;;;;;;;;;;;;2.38;100.00;102624.31;5049490;28;19927;-79
2022/01/19 05:38:42;;;;;;;;;;;;;;;2.43;100.00;102631.81;5058325;28;19971;-78
2022/01/19 05:41:08;;;;;;;;;;;;;;;2.46;100.00;102631.19;5063181;28;20483;-80
2022/01/19 05:43:34;;;;;;;;;;;;;;;2.46;100.00;102631.19;5072886;28;19949;-79
2022/01/19 05:45:59;;;;;;;;;;;;;;;2.53;100.00;102624.88;5073219;28;19993;-80
2022/01/19 05:48:25;;;;;;;;;;;;;;;2.53;100.00;102617.09;5088427;28;20352;-79
2022/01/19 05:50:52;;;;;;;;;;;;;;;2.55;100.00;102608.69;5075052;28;19920;-80
2022/01/19 05:53:19;;;;;;;;;;;;;;;2.58;100.00;102601.19;5072476;28;19946;-80
2022/01/19 05:55:46;;;;;;;;;;;;;;;2.63;100.00;102599.00;5073315;28;19921;-80
2022/01/19 05:58:11;;;;;;;;;;;;;;;2.64;100.00;102591.34;5072920;28;19982;-79
2022/01/19 06:00:37;;;;;;;;;;;;;;;2.72;100.00;102584.28;5064510;28;19917;-80
2022/01/19 06:03:09;;;;;;;;;;;;;;;2.80;100.00;102574.63;5074317;28;19921;-79
2022/01/19 06:05:35;;;;;;;;;;;;;;;2.83;100.00;102575.81;5056482;28;20422;-80
2022/01/19 06:08:44;;;;;;;;;;;;;;;2.87;100.00;102566.59;5072804;28;19920;-80
2022/01/19 06:10:54;;;;;;;;;;;;;;;2.93;100.00;102572.38;5074818;28;20284;-80
2022/01/19 06:13:24;;;;;;;;;;;;;;;2.95;100.00;102570.88;5058437;28;20357;-79
2022/01/19 06:15:49;;;;;;;;;;;;;;;2.97;100.00;102571.91;5072640;28;19924;-80
2022/01/19 06:18:15;;;;;;;;;;;;;;;2.97;100.00;102561.50;5073012;28;19924;-80
2022/01/19 06:20:42;;;;;;;;;;;;;;;2.96;100.00;102558.75;5072391;28;19920;-77
2022/01/19 06:23:13;;;;;;;;;;;;;;;2.99;100.00;102551.22;5059451;28;19924;-78
2022/01/19 06:25:39;;;;;;;;;;;;;;;3.01;100.00;102549.69;5072241;28;20430;-77
2022/01/19 06:28:05;;;;;;;;;;;;;;;3.10;100.00;102550.53;5044018;28;19971;-77
2022/01/19 06:30:39;;;;;;;;;;;;;;;3.17;100.00;102541.59;5056991;28;20496;-77
2022/01/19 06:33:07;;;;;;;;;;;;;;;3.16;100.00;102543.31;5074424;28;19955;-78
2022/01/19 06:35:32;;;;;;;;;;;;;;;3.24;100.00;102531.91;5038756;28;19981;-77
2022/01/19 06:37:58;;;;;;;;;;;;;;;3.22;100.00;102524.75;5055146;28;20007;-77
2022/01/19 06:40:29;;;;;;;;;;;;;;;3.17;100.00;102518.19;5055169;28;19928;-77
2022/01/19 06:42:56;;;;;;;;;;;;;;;3.21;100.00;102523.81;5055588;28;20516;-78
2022/01/19 06:45:22;;;;;;;;;;;;;;;3.26;100.00;102518.13;5053502;28;19921;-78
2022/01/19 06:47:48;;;;;;;;;;;;;;;3.19;100.00;102514.03;5075463;28;20246;-78
2022/01/19 06:50:19;;;;;;;;;;;;;;;3.26;100.00;102502.50;5066370;28;19935;-78
2022/01/19 06:52:47;;;;;;;;;;;;;;;3.28;100.00;102511.34;5055254;28;20349;-78
2022/01/19 06:55:13;;;;;;;;;;;;;;;3.25;100.00;102496.38;5059805;28;19921;-78
2022/01/19 06:57:38;;;;;;;;;;;;;;;3.27;100.00;102494.81;5055004;28;20391;-78
2022/01/19 07:00:05;;;;;;;;;;;;;;;3.29;100.00;102494.97;5038640;28;19932;-78
2022/01/19 07:02:31;;;;;;;;;;;;;;;3.30;100.00;102497.72;5054458;28;20307;-78
2022/01/19 07:04:56;;;;;;;;;;;;;;;3.29;100.00;102494.97;5056455;28;19920;-78
2022/01/19 07:07:22;;;;;;;;;;;;;;;3.30;100.00;102492.50;5054885;28;19927;-78
2022/01/19 07:09:47;;;;;;;;;;;;;;;3.35;100.00;102490.31;5058075;28;19923;-78
2022/01/19 07:12:13;;;;;;;;;;;;;;;3.40;100.00;102486.44;5055560;28;19969;-78
2022/01/19 07:14:38;;;;;;;;;;;;;;;3.40;100.00;102474.34;5072786;28;20246;-77
2022/01/19 07:17:03;;;;;;;;;;;;;;;3.42;100.00;102471.88;5073907;28;19916;-78
2022/01/19 07:19:33;;;;;;;;;;;;;;;3.40;100.00;102473.41;5063458;28;20324;-77
2022/01/19 07:22:23;;;;;;;;;;;;;;;3.41;100.00;102475.25;5072821;28;19916;-79
2022/01/19 07:24:51;;;;;;;;;;;;;;;3.43;100.00;102458.06;5071244;28;19927;-77
2022/01/19 07:27:18;;;;;;;;;;;;;;;3.42;100.00;102459.78;5061427;28;20308;-80
2022/01/19 07:29:43;;;;;;;;;;;;;;;3.46;100.00;102465.25;5075297;28;19927;-77
2022/01/19 07:32:11;;;;;;;;;;;;;;;3.42;100.00;102461.47;5075146;28;19920;-78
2022/01/19 07:34:40;;;;;;;;;;;;;;;3.46;100.00;102462.66;5074989;28;20395;-78
2022/01/19 07:37:05;;;;;;;;;;;;;;;3.50;100.00;102467.38;5075918;28;20019;-77
2022/01/19 07:39:31;;;;;;;;;;;;;;;3.48;100.00;102461.09;5096341;28;19923;-78
2022/01/19 07:41:57;;;;;;;;;;;;;;;3.46;100.00;102458.34;5073299;28;20356;-77
2022/01/19 07:44:24;;;;;;;;;;;;;;;3.52;100.00;102447.56;5059558;28;19952;-77
2022/01/19 07:46:53;;;;;;;;;;;;;;;3.48;100.00;102454.22;5066975;28;19920;-78
2022/01/19 07:49:19;;;;;;;;;;;;;;;3.49;100.00;102443.00;5068753;28;19949;-78
2022/01/19 07:51:44;;;;;;;;;;;;;;;3.49;100.00;102445.59;5075120;28;19950;-79
2022/01/19 07:54:09;;;;;;;;;;;;;;;3.50;100.00;102443.94;5078284;28;20411;-78
2022/01/19 07:56:36;;;;;;;;;;;;;;;3.51;100.00;102446.69;5068062;28;19928;-78
2022/01/19 07:59:05;;;;;;;;;;;;;;;3.54;100.00;102433.00;5090818;28;19927;-79
2022/01/19 08:01:31;;;;;;;;;;;;;;;3.51;100.00;102430.13;5078362;28;20015;-78
2022/01/19 08:03:58;;;;;;;;;;;;;;;3.54;100.00;102428.72;5068290;28;20061;-78
2022/01/19 08:06:25;;;;;;;;;;;;;;;3.55;100.00;102414.91;5078049;28;19950;-78
2022/01/19 08:09:00;;;;;;;;;;;;;;;3.59;100.00;102411.81;5084699;28;19920;-78
2022/01/19 08:11:25;;;;;;;;;;;;;;;3.66;100.00;102399.31;5054780;28;19921;-78
2022/01/19 08:13:52;;;;;;;;;;;;;;;3.67;100.00;102401.16;5059854;28;20007;-79
2022/01/19 08:16:21;;;;;;;;;;;;;;;3.67;100.00;102388.13;5056022;28;19970;-78
2022/01/19 08:18:47;;;;;;;;;;;;;;;3.67;100.00;102389.03;5075033;28;20009;-78
2022/01/19 08:21:15;;;;;;;;;;;;;;;3.69;100.00;102378.75;5068463;28;19928;-78
2022/01/19 08:23:42;;;;;;;;;;;;;;;3.71;100.00;102374.56;5061122;28;19921;-78
2022/01/19 08:26:07;;;;;;;;;;;;;;;3.69;100.00;102377.03;5064544;28;19920;-77
2022/01/19 08:28:33;;;;;;;;;;;;;;;3.71;100.00;102379.78;5060582;28;19945;-77
2022/01/19 08:31:02;;;;;;;;;;;;;;;3.67;100.00;102378.63;5086072;28;20352;-78
2022/01/19 08:33:30;;;;;;;;;;;;;;;3.71;100.00;102377.19;5076678;28;19979;-78
2022/01/19 08:35:55;;;;;;;;;;;;;;;3.69;100.00;102378.75;5051834;28;19924;-78
2022/01/19 08:38:20;;;;;;;;;;;;;;;3.73;100.00;102378.25;5037799;28;19954;-78
2022/01/19 08:40:46;;;;;;;;;;;;;;;3.76;100.00;102378.53;5091753;28;19920;-78
2022/01/19 08:43:15;;;;;;;;;;;;;;;3.78;100.00;102372.66;5057357;28;19962;-78
2022/01/19 08:45:41;;;;;;;;;;;;;;;3.79;100.00;102370.94;5043013;28;20365;-78
2022/01/19 08:48:06;;;;;;;;;;;;;;;3.80;100.00;102364.06;5056370;28;19978;-78
2022/01/19 08:50:32;;;;;;;;;;;;;;;3.81;100.00;102366.81;5039998;28;19924;-78
2022/01/19 08:53:00;;;;;;;;;;;;;;;3.77;100.00;102362.09;5055174;28;19929;-78
2022/01/19 08:55:31;;;;;;;;;;;;;;;3.83;100.00;102359.13;5074578;28;19921;-78
2022/01/19 08:58:00;;;;;;;;;;;;;;;3.74;100.00;102352.34;5080518;28;19920;-78
2022/01/19 09:00:27;;;;;;;;;;;;;;;3.76;100.00;102345.56;5055320;28;19928;-78
2022/01/19 09:02:53;;;;;;;;;;;;;;;3.80;100.00;102340.59;5076589;28;20350;-78
2022/01/19 09:05:42;;;;;;;;;;;;;;;3.82;100.00;102331.22;5074471;28;20066;-78
2022/01/19 09:08:10;;;;;;;;;;;;;;;3.83;100.00;102320.94;5051856;28;20352;-78
2022/01/19 09:10:40;;;;;;;;;;;;;;;3.77;100.00;102312.59;5089579;28;20012;-82
2022/01/19 09:13:10;;;;;;;;;;;;;;;3.77;100.00;102312.59;5074354;28;19924;-79
2022/01/19 09:15:35;;;;;;;;;;;;;;;3.77;100.00;102312.59;5059054;28;19924;-79
2022/01/19 09:18:00;;;;;;;;;;;;;;;3.80;100.00;102306.72;5056131;28;19920;-80
2022/01/19 09:20:26;;;;;;;;;;;;;;;3.73;100.00;102297.47;5051558;28;19927;-80
2022/01/19 09:22:54;;;;;;;;;;;;;;;3.78;100.00;102293.56;5074421;28;19960;-79
2022/01/19 09:25:23;;;;;;;;;;;;;;;3.73;100.00;102295.78;5043000;28;20384;-79
2022/01/19 09:27:48;;;;;;;;;;;;;;;3.79;100.00;102290.16;5056727;28;20011;-79
2022/01/19 09:30:16;;;;;;;;;;;;;;;3.75;100.00;102282.88;5039640;28;19948;-81
2022/01/19 09:33:06;;;;;;;;;;;;;;;3.77;100.00;102277.00;5056468;28;19932;-80
2022/01/19 09:35:49;;;;;;;;;;;;;;;3.76;100.00;102261.28;5056232;28;19920;-79
2022/01/19 09:38:15;;;;;;;;;;;;;;;3.76;100.00;102245.63;5057541;28;20376;-80
2022/01/19 09:40:40;;;;;;;;;;;;;;;3.74;100.00;102257.59;5058529;28;20029;-80
2022/01/19 09:43:08;;;;;;;;;;;;;;;3.77;100.00;102260.47;5055781;28;19943;-80
2022/01/19 09:45:34;;;;;;;;;;;;;;;3.79;100.00;102264.09;5064975;28;20000;-79
2022/01/19 09:47:59;;;;;;;;;;;;;;;3.75;100.00;102264.66;5076960;28;19970;-79
2022/01/19 09:50:24;;;;;;;;;;;;;;;3.78;100.00;102263.22;5073245;28;20398;-78
2022/01/19 09:52:51;;;;;;;;;;;;;;;3.77;100.00;102255.25;5065494;28;19921;-79
2022/01/19 09:55:16;;;;;;;;;;;;;;;3.81;100.00;102252.16;5055420;28;19938;-78
2022/01/19 09:57:41;;;;;;;;;;;;;;;3.81;100.00;102256.41;5049054;28;19924;-79
2022/01/19 10:00:07;;;;;;;;;;;;;;;3.77;100.00;102261.38;5073283;28;20516;-79
2022/01/19 10:02:36;;;;;;;;;;;;;;;3.77;100.00;102268.28;5054376;28;20002;-79
2022/01/19 10:05:10;;;;;;;;;;;;;;;3.80;100.00;102265.94;5055747;28;20070;-79
2022/01/19 10:07:38;;;;;;;;;;;;;;;3.75;100.00;102268.16;5052167;28;20501;-79
2022/01/19 10:10:11;;;;;;;;;;;;;;;3.82;100.00;102266.06;5056008;28;20030;-79
2022/01/19 10:18:17;;;;;;;;;;;;;;;3.78;100.00;102285.75;5053237;28;19971;-79
2022/01/19 10:20:44;;;;;;;;;;;;;;;3.76;100.00;102279.50;5066134;28;19924;-80
2022/01/19 10:23:35;;;;;;;;;;;;;;;3.75;100.00;102280.28;5065553;28;20069;-80
2022/01/19 10:26:01;;;;;;;;;;;;;;;3.71;100.00;102278.19;5073677;28;19920;-78
2022/01/19 10:28:28;;;;;;;;;;;;;;;3.73;100.00;102274.03;5055332;28;19920;-79
2022/01/19 10:30:56;;;;;;;;;;;;;;;3.76;100.00;102271.69;5056570;28;20388;-79
2022/01/19 10:33:23;;;;;;;;;;;;;;;3.68;100.00;102268.44;5058767;28;19924;-79
2022/01/19 10:35:49;;;;;;;;;;;;;;;3.71;100.00;102265.16;5058856;28;20291;-78
2022/01/19 10:38:32;;;;;;;;;;;;;;;3.80;100.00;102260.72;5059078;28;19928;-78
2022/01/19 10:40:57;;;;;;;;;;;;;;;3.84;100.00;102252.41;5093560;28;19929;-80
2022/01/19 10:43:47;;;;;;;;;;;;;;;3.90;100.00;102244.19;5075339;28;19924;-79
2022/01/19 10:46:15;;;;;;;;;;;;;;;3.91;100.00;102233.88;5092808;28;20474;-79
2022/01/19 10:48:55;;;;;;;;;;;;;;;3.89;100.00;102225.03;5093364;28;20366;-79
2022/01/19 10:51:21;;;;;;;;;;;;;;;3.97;100.00;102222.19;5072351;28;20003;-79
2022/01/19 10:54:06;;;;;;;;;;;;;;;3.98;100.00;102214.50;5090094;28;20009;-79
2022/01/19 10:56:36;;;;;;;;;;;;;;;4.07;100.00;102214.34;5093068;28;19931;-78
2022/01/19 10:59:05;;;;;;;;;;;;;;;4.07;100.00;102203.91;5075643;28;19920;-80
2022/01/19 11:01:36;;;;;;;;;;;;;;;4.07;100.00;102199.63;5078694;28;19927;-80
2022/01/19 11:04:20;;;;;;;;;;;;;;;4.14;100.00;102186.28;5079179;28;20333;-78
2022/01/19 11:06:46;;;;;;;;;;;;;;;4.31;100.00;102177.25;5079209;28;19927;-78
2022/01/19 11:09:14;;;;;;;;;;;;;;;4.37;100.00;102178.56;5097379;28;19954;-79
2022/01/19 11:11:40;;;;;;;;;;;;;;;4.45;100.00;102180.13;5078248;28;19920;-79
2022/01/19 11:14:06;;;;;;;;;;;;;;;4.41;100.00;102171.13;5077557;28;19916;-80
2022/01/19 11:16:33;;;;;;;;;;;;;;;4.43;100.00;102163.44;5077290;28;19924;-79
2022/01/19 11:18:59;;;;;;;;;;;;;;;4.42;100.00;102166.81;5058506;28;19993;-81
2022/01/19 11:21:25;;;;;;;;;;;;;;;4.48;100.00;102159.50;5041788;28;20342;-80
2022/01/19 11:24:01;;;;;;;;;;;;;;;4.55;100.00;102159.19;5059657;28;19967;-80
2022/01/19 11:26:31;;;;;;;;;;;;;;;4.64;100.00;102157.31;5083679;28;20073;-82
2022/01/19 11:29:11;;;;;;;;;;;;;;;4.85;100.00;102150.31;5081430;28;19926;-79
2022/01/19 11:31:38;;;;;;;;;;;;;;;5.15;100.00;102147.41;5079299;28;19928;-81
2022/01/19 11:34:04;;;;;;;;;;;;;;;5.22;100.00;102136.66;5078176;28;19963;-78
2022/01/19 11:36:34;;;;;;;;;;;;;;;5.23;100.00;102133.25;5076532;28;19947;-79
2022/01/19 11:39:08;;;;;;;;;;;;;;;5.21;100.00;102125.28;5095765;28;19920;-81
2022/01/19 11:41:37;;;;;;;;;;;;;;;5.29;100.00;102118.06;5096255;28;19967;-79
2022/01/19 11:44:04;;;;;;;;;;;;;;;5.27;100.00;102121.34;5082194;28;19920;-79
2022/01/19 11:46:31;;;;;;;;;;;;;;;5.29;100.00;102117.16;5079977;28;19920;-78
2022/01/19 11:48:59;;;;;;;;;;;;;;;5.22;100.00;102116.66;5098125;28;19920;-79
2022/01/19 11:51:44;;;;;;;;;;;;;;;5.29;100.00;102114.53;5079843;28;20013;-78
2022/01/19 11:54:43;;;;;;;;;;;;;;;5.21;100.00;102108.72;5080110;28;19923;-79
2022/01/19 11:57:14;;;;;;;;;;;;;;;5.34;100.00;102097.50;5062953;28;19960;-80
2022/01/19 11:59:45;;;;;;;;;;;;;;;5.28;100.00;102100.53;5059037;28;19931;-80
2022/01/19 12:02:32;;;;;;;;;;;;;;;5.40;100.00;102095.38;5058606;28;20015;-80
2022/01/19 12:04:59;;;;;;;;;;;;;;;5.31;100.00;102087.72;5069874;28;20010;-79
2022/01/19 12:07:38;;;;;;;;;;;;;;;5.28;100.00;102084.88;5078785;28;20340;-80
2022/01/19 12:10:07;;;;;;;;;;;;;;;5.24;100.00;102066.28;5078671;28;19916;-80
2022/01/19 12:12:40;;;;;;;;;;;;;;;5.27;100.00;102069.13;5077596;28;20638;-80
2022/01/19 12:15:08;;;;;;;;;;;;;;;5.27;100.00;102064.78;5080695;28;20437;-79
2022/01/19 12:17:55;;;;;;;;;;;;;;;5.21;100.00;102062.59;5097290;28;19920;-81
2022/01/19 12:20:39;;;;;;;;;;;;;;;5.11;100.00;102059.16;5081079;28;19916;-80
2022/01/19 12:23:25;;;;;;;;;;;;;;;5.07;100.00;102052.81;5079896;28;19952;-81
2022/01/19 12:25:57;;;;;;;;;;;;;;;5.15;100.00;102056.00;5078244;28;19920;-81
2022/01/19 12:28:43;;;;;;;;;;;;;;;5.10;100.00;102053.06;5063604;28;19924;-80
2022/01/19 12:31:24;;;;;;;;;;;;;;;5.16;100.00;102061.34;5096048;28;19948;-79
2022/01/19 12:34:06;;;;;;;;;;;;;;;5.16;100.00;102055.22;5074395;28;19921;-80
2022/01/19 12:36:47;;;;;;;;;;;;;;;5.17;100.00;102047.53;5058015;28;19947;-81
2022/01/19 12:39:25;;;;;;;;;;;;;;;5.23;100.00;102049.66;5054646;28;19966;-78
2022/01/19 12:41:59;;;;;;;;;;;;;;;5.18;100.00;102051.94;5053643;28;20018;-79
2022/01/19 12:44:43;;;;;;;;;;;;;;;5.16;100.00;102045.69;5059072;28;19925;-79
2022/01/19 12:47:36;;;;;;;;;;;;;;;5.10;100.00;102033.88;5056035;28;20372;-79
2022/01/19 12:50:40;;;;;;;;;;;;;;;5.14;100.00;102018.56;5035759;28;20348;-81
2022/01/19 12:53:19;;;;;;;;;;;;;;;5.22;100.00;102014.81;5057214;28;19952;-81
2022/01/19 12:55:48;;;;;;;;;;;;;;;5.19;100.00;102017.19;5071578;28;19916;-80
2022/01/19 12:58:16;;;;;;;;;;;;;;;5.14;100.00;102012.41;5041632;28;20264;-78
2022/01/19 13:00:45;;;;;;;;;;;;;;;5.27;100.00;102002.13;5073688;28;19916;-81
2022/01/19 13:03:34;;;;;;;;;;;;;;;5.21;100.00;101993.81;5075184;28;20421;-80
2022/01/19 13:06:24;;;;;;;;;;;;;;;5.22;100.00;101985.19;5056666;28;19921;-78
2022/01/19 13:09:25;;;;;;;;;;;;;;;5.24;100.00;101994.03;5056691;28;19962;-81
2022/01/19 13:11:54;;;;;;;;;;;;;;;5.32;100.00;101994.63;5078126;28;19928;-82
2022/01/19 13:14:19;;;;;;;;;;;;;;;5.37;100.00;101986.31;5062631;28;19927;-81
2022/01/19 13:16:48;;;;;;;;;;;;;;;5.43;100.00;101977.16;5058010;28;19924;-82
2022/01/19 13:19:13;;;;;;;;;;;;;;;5.49;100.00;101964.53;5057772;28;19956;-82
2022/01/19 13:21:39;;;;;;;;;;;;;;;5.53;100.00;101958.72;5057742;28;19962;-82
2022/01/19 13:24:25;;;;;;;;;;;;;;;5.37;100.00;101969.75;5056504;28;19924;-80
2022/01/19 13:26:59;;;;;;;;;;;;;;;5.32;100.00;101965.91;5074991;28;19946;-80
2022/01/19 13:29:28;;;;;;;;;;;;;;;5.28;100.00;101956.00;5067897;28;19925;-81
2022/01/19 13:31:54;;;;;;;;;;;;;;;5.21;100.00;101952.03;5062546;28;19927;-82
2022/01/19 13:34:19;;;;;;;;;;;;;;;5.20;100.00;101950.19;5073277;28;19928;-81
2022/01/19 13:36:51;;;;;;;;;;;;;;;5.17;100.00;101943.06;5073912;28;20253;-82
2022/01/19 13:39:19;;;;;;;;;;;;;;;5.20;100.00;101939.75;5073399;28;19920;-79
2022/01/19 13:41:44;;;;;;;;;;;;;;;5.21;100.00;101937.25;5072947;28;20803;-81
2022/01/19 13:44:13;;;;;;;;;;;;;;;5.16;100.00;101929.91;5091791;28;19920;-80
2022/01/19 13:46:40;;;;;;;;;;;;;;;5.20;100.00;101922.41;5093431;28;19920;-81
2022/01/19 13:49:05;;;;;;;;;;;;;;;5.16;100.00;101920.34;5095143;28;19923;-82
2022/01/19 13:51:32;;;;;;;;;;;;;;;5.16;100.00;101924.69;5091139;28;20348;-79
2022/01/19 13:54:13;;;;;;;;;;;;;;;5.15;100.00;101915.00;5094414;28;19920;-80
2022/01/19 13:56:39;;;;;;;;;;;;;;;5.15;100.00;101902.84;5079243;28;19921;-81
2022/01/19 13:59:12;;;;;;;;;;;;;;;5.14;100.00;101902.75;5074644;28;19924;-82
2022/01/19 14:02:18;;;;;;;;;;;;;;;5.20;100.00;101911.03;5076539;28;20010;-82
2022/01/19 14:04:37;;;;;;;;;;;;;;;5.27;100.00;101910.72;5073255;28;20412;-79
2022/01/19 14:07:06;;;;;;;;;;;;;;;5.25;100.00;101906.16;5073137;28;19921;-78
2022/01/19 14:09:34;;;;;;;;;;;;;;;5.27;100.00;101902.88;5086825;28;20379;-80
2022/01/19 14:11:59;;;;;;;;;;;;;;;5.26;100.00;101903.66;5065864;28;19963;-79
2022/01/19 14:14:29;;;;;;;;;;;;;;;5.33;100.00;101905.00;5065562;28;19920;-80